createdAt,value
2022-11-05T00:00:36.449Z,14.73
2022-11-05T00:03:39.893Z,15.90
2022-11-05T00:06:29.282Z,16.03
2022-11-05T00:09:14.752Z,17.80
2022-11-05T00:12:00.132Z,16.40
2022-11-05T00:14:45.699Z,17.30
2022-11-05T00:17:12.743Z,20.00
2022-11-05T00:19:39.803Z,17.23
2022-11-05T00:22:25.073Z,18.30
2022-11-05T00:25:10.521Z,18.70
2022-11-05T00:27:37.608Z,17.03
2022-11-05T00:30:07.281Z,20.07
2022-11-05T00:32:36.628Z,18.60
2022-11-05T00:35:05.244Z,18.50
2022-11-05T00:37:32.241Z,17.87
2022-11-05T00:39:59.409Z,20.07
2022-11-05T00:42:44.737Z,18.70
2022-11-05T00:45:11.937Z,16.87
2022-11-05T00:47:58.482Z,17.40
2022-11-05T00:50:25.771Z,18.07
2022-11-05T00:52:59.702Z,17.60
2022-11-05T00:55:38.595Z,17.73
2022-11-05T00:58:15.103Z,19.67
2022-11-05T01:00:53.351Z,18.90
2022-11-05T01:03:35.860Z,20.23
2022-11-05T01:06:10.993Z,19.97
2022-11-05T01:08:39.058Z,18.47
2022-11-05T01:11:34.327Z,19.50
2022-11-05T01:14:05.253Z,17.47
2022-11-05T01:16:32.699Z,18.63
2022-11-05T01:19:01.037Z,19.20
2022-11-05T01:21:28.202Z,18.43
2022-11-05T01:23:55.274Z,20.50
2022-11-05T01:26:22.783Z,18.87
2022-11-05T01:29:00.504Z,16.50
2022-11-05T01:31:28.681Z,18.57
2022-11-05T01:33:55.817Z,17.70
2022-11-05T01:36:22.880Z,18.83
2022-11-05T01:38:49.946Z,17.83
2022-11-05T01:41:16.974Z,20.33
2022-11-05T01:43:49.946Z,20.47
2022-11-05T01:46:27.675Z,21.83
2022-11-05T01:49:02.941Z,18.60
2022-11-05T01:51:31.082Z,19.57
2022-11-05T01:54:03.736Z,18.80
2022-11-05T01:56:40.954Z,19.50
2022-11-05T01:59:30.635Z,14.27
2022-11-05T02:01:58.618Z,15.23
2022-11-05T02:04:40.427Z,15.60
2022-11-05T02:07:09.378Z,15.33
2022-11-05T02:10:05.301Z,16.00
2022-11-05T02:12:33.676Z,16.87
2022-11-05T02:15:00.728Z,18.70
2022-11-05T02:17:40.145Z,17.47
2022-11-05T02:20:51.992Z,17.30
2022-11-05T02:23:54.478Z,17.43
2022-11-05T02:27:07.340Z,18.07
2022-11-05T02:29:58.604Z,16.93
2022-11-05T02:32:34.631Z,18.30
2022-11-05T02:35:15.382Z,15.73
2022-11-05T02:37:52.686Z,14.97
2022-11-05T02:40:27.032Z,15.27
2022-11-05T02:43:28.176Z,15.40
2022-11-05T02:47:12.901Z,14.87
2022-11-05T02:49:53.084Z,12.97
2022-11-05T02:52:41.836Z,14.70
2022-11-05T02:55:59.465Z,14.40
2022-11-05T02:58:30.623Z,14.37
2022-11-05T03:01:02.172Z,13.83
2022-11-05T03:03:51.420Z,13.23
2022-11-05T03:06:44.251Z,13.33
2022-11-05T03:09:39.248Z,13.57
2022-11-05T03:12:27.779Z,12.77
2022-11-05T03:15:25.472Z,12.87
2022-11-05T03:18:13.262Z,12.40
2022-11-05T03:21:03.337Z,14.10
2022-11-05T03:23:46.850Z,13.60
2022-11-05T03:26:27.969Z,13.93
2022-11-05T03:29:06.845Z,15.87
2022-11-05T03:31:36.528Z,17.77
2022-11-05T03:34:06.738Z,16.27
2022-11-05T03:36:41.252Z,17.70
2022-11-05T03:39:22.359Z,17.47
2022-11-05T03:41:52.437Z,21.00
2022-11-05T03:44:27.856Z,22.10
2022-11-05T03:47:02.769Z,23.10
2022-11-05T03:49:39.384Z,22.60
2022-11-05T03:52:22.672Z,22.43
2022-11-05T03:54:49.924Z,24.03
2022-11-05T03:57:23.850Z,23.37
2022-11-05T03:59:51.835Z,24.23
2022-11-05T04:02:22.792Z,22.90
2022-11-05T04:04:49.941Z,23.33
2022-11-05T04:07:35.750Z,21.87
2022-11-05T04:10:20.995Z,21.40
2022-11-05T04:13:07.196Z,20.97
2022-11-05T04:15:54.226Z,22.80
2022-11-05T04:18:21.849Z,20.87
2022-11-05T04:21:07.261Z,23.27
2022-11-05T04:23:53.137Z,22.00
2022-11-05T04:26:23.558Z,23.03
2022-11-05T04:29:10.458Z,21.30
2022-11-05T04:31:38.506Z,23.77
2022-11-05T04:34:06.095Z,22.87
2022-11-05T04:36:33.307Z,22.10
2022-11-05T04:39:00.425Z,20.90
2022-11-05T04:41:27.619Z,22.47
2022-11-05T04:43:55.034Z,21.20
2022-11-05T04:46:22.109Z,21.20
2022-11-05T04:48:49.172Z,22.93
2022-11-05T04:51:16.226Z,21.70
2022-11-05T04:53:43.338Z,21.60
2022-11-05T04:56:28.626Z,21.67
2022-11-05T04:58:55.675Z,21.80
2022-11-05T05:01:25.464Z,21.47
2022-11-05T05:03:54.467Z,21.77
2022-11-05T05:06:22.653Z,19.87
2022-11-05T05:08:51.839Z,20.83
2022-11-05T05:11:22.134Z,21.10
2022-11-05T05:13:50.159Z,20.43
2022-11-05T05:16:24.205Z,20.07
2022-11-05T05:18:52.142Z,20.87
2022-11-05T05:21:40.406Z,19.83
2022-11-05T05:24:15.506Z,19.77
2022-11-05T05:26:45.702Z,19.93
2022-11-05T05:29:14.067Z,19.80
2022-11-05T05:31:41.525Z,19.10
2022-11-05T05:34:12.876Z,20.03
2022-11-05T05:36:40.315Z,17.60
2022-11-05T05:39:11.201Z,20.30
2022-11-05T05:41:38.507Z,18.50
2022-11-05T05:44:06.573Z,19.33
2022-11-05T05:46:33.934Z,20.60
2022-11-05T05:49:01.039Z,19.70
2022-11-05T05:51:28.009Z,21.80
2022-11-05T05:53:55.257Z,19.13
2022-11-05T05:56:22.484Z,20.30
2022-11-05T05:58:49.594Z,21.90
2022-11-05T06:01:19.606Z,19.97
2022-11-05T06:03:48.740Z,19.70
2022-11-05T06:06:21.271Z,18.93
2022-11-05T06:08:49.091Z,19.40
2022-11-05T06:11:16.488Z,19.23
2022-11-05T06:13:43.549Z,19.77
2022-11-05T06:16:11.193Z,20.23
2022-11-05T06:18:38.599Z,20.97
2022-11-05T06:21:10.071Z,18.57
2022-11-05T06:23:39.756Z,17.93
2022-11-05T06:26:14.053Z,20.50
2022-11-05T06:28:42.147Z,20.23
2022-11-05T06:31:14.335Z,20.77
2022-11-05T06:33:41.485Z,19.53
2022-11-05T06:36:14.498Z,19.27
2022-11-05T06:38:41.668Z,17.83
2022-11-05T06:41:10.567Z,19.00
2022-11-05T06:43:38.668Z,18.60
2022-11-05T06:46:06.129Z,18.50
2022-11-05T06:48:33.544Z,28.63
2022-11-05T06:51:00.575Z,18.90
2022-11-05T06:53:27.797Z,19.90
2022-11-05T06:55:55.059Z,20.23
2022-11-05T06:58:22.320Z,19.00
2022-11-05T07:00:50.156Z,20.50
2022-11-05T07:03:17.243Z,19.40
2022-11-05T07:05:48.497Z,21.00
2022-11-05T07:08:16.081Z,20.83
2022-11-05T07:10:43.433Z,19.13
2022-11-05T07:13:11.040Z,19.20
2022-11-05T07:15:38.583Z,18.60
2022-11-05T07:18:07.493Z,19.97
2022-11-05T07:20:35.315Z,18.27
2022-11-05T07:23:10.207Z,19.90
2022-11-05T07:25:37.840Z,18.03
2022-11-05T07:28:05.284Z,18.07
2022-11-05T07:30:34.536Z,18.10
2022-11-05T07:33:01.978Z,18.57
2022-11-05T07:35:29.154Z,20.30
2022-11-05T07:37:56.416Z,18.80
2022-11-05T07:40:27.632Z,18.43
2022-11-05T07:42:59.235Z,15.90
2022-11-05T07:45:29.154Z,18.47
2022-11-05T07:47:59.526Z,16.90
2022-11-05T07:50:31.412Z,19.50
2022-11-05T07:53:14.435Z,19.03
2022-11-05T07:55:42.329Z,16.80
2022-11-05T07:58:10.935Z,16.97
2022-11-05T08:00:38.438Z,15.60
2022-11-05T08:03:10.512Z,16.57
2022-11-05T08:05:40.977Z,16.93
2022-11-05T08:08:12.955Z,14.60
2022-11-05T08:10:40.790Z,15.23
2022-11-05T08:13:09.056Z,15.17
2022-11-05T08:15:36.752Z,15.80
2022-11-05T08:18:13.932Z,14.93
2022-11-05T08:20:42.953Z,16.40
2022-11-05T08:23:10.993Z,14.93
2022-11-05T08:25:38.369Z,15.77
2022-11-05T08:28:12.903Z,14.60
2022-11-05T08:30:40.700Z,14.80
2022-11-05T08:33:14.335Z,13.67
2022-11-05T08:35:42.241Z,14.37
2022-11-05T08:38:16.199Z,13.30
2022-11-05T08:40:45.364Z,14.97
2022-11-05T08:43:14.891Z,13.47
2022-11-05T08:45:42.484Z,14.70
2022-11-05T08:48:15.076Z,13.10
2022-11-05T08:50:43.149Z,13.07
2022-11-05T08:53:11.344Z,13.33
2022-11-05T08:55:39.160Z,13.57
2022-11-05T08:58:12.631Z,13.77
2022-11-05T09:00:40.224Z,12.73
2022-11-05T09:03:09.284Z,13.50
2022-11-05T09:05:39.680Z,13.80
2022-11-05T09:08:18.828Z,11.70
2022-11-05T09:10:47.891Z,11.03
2022-11-05T09:13:19.504Z,11.47
2022-11-05T09:15:49.262Z,13.40
2022-11-05T09:18:17.755Z,11.23
2022-11-05T09:20:45.336Z,10.73
2022-11-05T09:23:14.982Z,10.53
2022-11-05T09:25:42.587Z,12.60
2022-11-05T09:28:21.336Z,10.73
2022-11-05T09:30:51.052Z,13.10
2022-11-05T09:33:24.703Z,11.40
2022-11-05T09:35:53.653Z,10.83
2022-11-05T09:38:20.885Z,9.73
2022-11-05T09:41:08.889Z,11.07
2022-11-05T09:43:50.890Z,10.20
2022-11-05T09:46:26.004Z,9.50
2022-11-05T09:49:02.254Z,9.20
2022-11-05T09:51:29.798Z,7.83
2022-11-05T09:53:59.583Z,8.60
2022-11-05T09:56:37.463Z,8.50
2022-11-05T09:59:18.361Z,8.53
2022-11-05T10:01:46.952Z,7.50
2022-11-05T10:04:20.197Z,8.90
2022-11-05T10:06:55.809Z,8.20
2022-11-05T10:09:47.912Z,8.00
2022-11-05T10:12:35.557Z,6.40
2022-11-05T10:15:21.895Z,6.10
2022-11-05T10:17:56.667Z,7.73
2022-11-05T10:20:38.870Z,7.57
2022-11-05T10:23:15.587Z,6.90
2022-11-05T10:26:06.744Z,6.20
2022-11-05T10:28:36.544Z,6.73
2022-11-05T10:31:11.122Z,8.13
2022-11-05T10:33:46.634Z,5.83
2022-11-05T10:36:32.039Z,6.53
2022-11-05T10:39:10.371Z,5.80
2022-11-05T10:42:24.204Z,4.93
2022-11-05T10:45:15.828Z,3.97
2022-11-05T10:47:52.540Z,5.23
2022-11-05T10:50:27.589Z,4.07
2022-11-05T10:53:03.079Z,4.20
2022-11-05T10:55:38.047Z,3.77
2022-11-05T10:58:34.791Z,4.17
2022-11-05T11:01:07.433Z,3.10
2022-11-05T11:03:40.701Z,3.40
2022-11-05T11:06:32.564Z,3.20
2022-11-05T11:09:03.845Z,3.47
2022-11-05T11:11:42.237Z,4.07
2022-11-05T11:14:12.845Z,2.40
2022-11-05T11:16:45.090Z,3.40
2022-11-05T11:19:25.671Z,2.53
2022-11-05T11:22:04.964Z,3.23
2022-11-05T11:24:41.176Z,3.70
2022-11-05T11:27:34.877Z,3.23
2022-11-05T11:30:04.900Z,2.70
2022-11-05T11:32:39.260Z,2.77
2022-11-05T11:35:17.990Z,3.07
2022-11-05T11:37:45.744Z,3.37
2022-11-05T11:40:30.769Z,3.00
2022-11-05T11:43:16.460Z,2.40
2022-11-05T11:45:52.218Z,2.83
2022-11-05T11:48:28.147Z,2.70
2022-11-05T11:50:56.367Z,3.40
2022-11-05T11:53:35.340Z,2.73
2022-11-05T11:56:17.910Z,3.30
2022-11-05T11:58:54.994Z,3.20
2022-11-05T12:02:02.212Z,3.20
2022-11-05T12:05:01.795Z,2.50
2022-11-05T12:07:50.991Z,2.37
2022-11-05T12:10:33.202Z,2.03
2022-11-05T12:13:18.693Z,2.07
2022-11-05T12:15:57.353Z,3.00
2022-11-05T12:18:48.965Z,2.53
2022-11-05T12:21:52.196Z,2.57
2022-11-05T12:24:38.365Z,2.27
2022-11-05T12:28:05.486Z,2.00
2022-11-05T12:30:43.738Z,2.00
2022-11-05T12:34:04.770Z,2.50
2022-11-05T12:36:44.739Z,2.00
2022-11-05T12:39:43.815Z,2.10
2022-11-05T12:42:54.342Z,2.77
2022-11-05T12:45:56.071Z,2.80
2022-11-05T12:48:56.573Z,1.90
2022-11-05T12:52:03.413Z,2.23
2022-11-05T12:55:04.821Z,2.03
2022-11-05T12:57:37.342Z,2.57
2022-11-05T13:00:21.996Z,2.30
2022-11-05T13:03:19.301Z,2.03
2022-11-05T13:06:12.618Z,2.50
2022-11-05T13:09:15.548Z,1.60
2022-11-05T13:11:49.770Z,1.50
2022-11-05T13:14:38.142Z,2.03
2022-11-05T13:17:22.770Z,2.20
2022-11-05T13:20:17.555Z,1.60
2022-11-05T13:23:14.240Z,1.60
2022-11-05T13:25:49.750Z,1.80
2022-11-05T13:28:35.105Z,2.27
2022-11-05T13:31:08.261Z,1.83
2022-11-05T13:33:40.479Z,2.13
2022-11-05T13:36:49.725Z,1.70
2022-11-05T13:39:35.947Z,2.00
2022-11-05T13:42:11.891Z,1.50
2022-11-05T13:45:19.912Z,3.40
2022-11-05T13:47:53.107Z,1.80
2022-11-05T13:50:50.258Z,4.23
2022-11-05T13:53:48.140Z,1.77
2022-11-05T13:56:44.029Z,1.77
2022-11-05T13:59:38.519Z,1.83
2022-11-05T14:02:17.894Z,1.90
2022-11-05T14:05:00.962Z,2.17
2022-11-05T14:07:33.372Z,3.03
2022-11-05T14:10:39.825Z,2.47
2022-11-05T14:13:31.667Z,2.07
2022-11-05T14:16:10.802Z,2.37
2022-11-05T14:18:49.916Z,1.60
2022-11-05T14:21:26.346Z,1.30
2022-11-05T14:24:17.384Z,1.97
2022-11-05T14:26:44.560Z,1.77
2022-11-05T14:29:22.986Z,2.33
2022-11-05T14:32:09.676Z,2.00
2022-11-05T14:34:49.212Z,8.77
2022-11-05T14:37:34.389Z,4.07
2022-11-05T14:40:42.444Z,2.70
2022-11-05T14:43:24.303Z,2.03
2022-11-05T14:46:00.830Z,2.53
2022-11-05T14:48:44.124Z,1.77
2022-11-05T14:51:42.641Z,2.30
2022-11-05T14:54:45.373Z,2.70
2022-11-05T14:57:42.464Z,2.20
2022-11-05T15:00:28.418Z,2.13
2022-11-05T15:03:34.334Z,2.57
2022-11-05T15:06:31.336Z,1.80
2022-11-05T15:09:16.231Z,2.10
2022-11-05T15:11:56.559Z,1.40
2022-11-05T15:14:34.963Z,2.40
2022-11-05T15:17:47.916Z,2.63
2022-11-05T15:20:27.425Z,1.60
2022-11-05T15:23:00.313Z,1.70
2022-11-05T15:25:52.749Z,1.43
2022-11-05T15:28:37.021Z,2.17
2022-11-05T15:31:17.591Z,5.00
2022-11-05T15:33:47.739Z,3.93
2022-11-05T15:36:29.291Z,3.13
2022-11-05T15:39:23.325Z,4.37
2022-11-05T15:41:46.799Z,6.03
2022-11-05T15:44:34.712Z,6.30
2022-11-05T15:47:24.471Z,4.43
2022-11-05T15:50:15.719Z,3.70
2022-11-05T15:52:52.839Z,4.43
2022-11-05T15:55:23.709Z,5.03
2022-11-05T15:58:06.804Z,5.20
2022-11-05T16:00:36.539Z,3.50
2022-11-05T16:03:18.238Z,3.83
2022-11-05T16:05:48.453Z,4.97
2022-11-05T16:08:21.216Z,3.87
2022-11-05T16:10:52.204Z,4.57
2022-11-05T16:13:39.722Z,4.37
2022-11-05T16:16:16.078Z,4.67
2022-11-05T16:18:45.156Z,4.23
2022-11-05T16:21:23.282Z,5.50
2022-11-05T16:23:55.058Z,5.87
2022-11-05T16:29:38.123Z,6.40
2022-11-05T16:32:25.298Z,8.30
2022-11-05T16:35:06.876Z,9.50
2022-11-05T16:37:46.401Z,9.27
2022-11-05T16:40:25.770Z,8.67
2022-11-05T16:42:55.213Z,8.13
2022-11-05T16:45:25.095Z,8.13
2022-11-05T16:47:52.851Z,6.80
2022-11-05T16:50:29.847Z,7.23
2022-11-05T16:52:57.061Z,7.73
2022-11-05T16:55:24.256Z,8.93
2022-11-05T16:57:55.942Z,7.43
2022-11-05T17:00:24.750Z,8.10
2022-11-05T17:02:52.959Z,6.70
2022-11-05T17:05:31.258Z,7.00
2022-11-05T17:07:59.011Z,6.87
2022-11-05T17:10:26.685Z,7.53
2022-11-05T17:12:54.342Z,7.20
2022-11-05T17:15:29.293Z,7.10
2022-11-05T17:17:56.945Z,8.53
2022-11-05T17:20:45.381Z,8.77
2022-11-05T17:23:16.437Z,8.53
2022-11-05T17:25:47.897Z,9.07
2022-11-05T17:28:16.468Z,10.50
2022-11-05T17:30:51.700Z,8.73
2022-11-05T17:33:20.856Z,7.20
2022-11-05T17:35:48.103Z,8.87
2022-11-05T17:38:15.533Z,7.43
2022-11-05T17:40:42.892Z,8.70
2022-11-05T17:43:11.026Z,6.50
2022-11-05T17:45:50.466Z,7.87
2022-11-05T17:48:19.384Z,8.30
2022-11-05T17:50:49.245Z,10.27
2022-11-05T17:53:19.195Z,8.80
2022-11-05T17:55:47.346Z,8.17
2022-11-05T17:58:14.988Z,8.10
2022-11-05T18:00:44.178Z,8.93
2022-11-05T18:03:12.663Z,8.20
2022-11-05T18:05:41.038Z,8.20
2022-11-05T18:08:09.061Z,7.57
2022-11-05T18:10:41.024Z,7.97
2022-11-05T18:13:08.113Z,6.33
2022-11-05T18:15:38.057Z,7.43
2022-11-05T18:18:05.177Z,7.37
2022-11-05T18:20:32.578Z,8.30
2022-11-05T18:22:59.733Z,8.40
2022-11-05T18:25:27.147Z,7.73
2022-11-05T18:27:54.251Z,9.07
2022-11-05T18:30:21.359Z,7.27
2022-11-05T18:32:48.445Z,7.03
2022-11-05T18:35:15.497Z,7.53
2022-11-05T18:37:42.803Z,7.30
2022-11-05T18:40:12.733Z,7.83
2022-11-05T18:42:40.275Z,7.00
2022-11-05T18:45:09.734Z,7.17
2022-11-05T18:47:37.232Z,7.47
2022-11-05T18:50:06.212Z,7.67
2022-11-05T18:52:33.502Z,8.27
2022-11-05T18:55:00.626Z,11.03
2022-11-05T18:57:28.332Z,11.30
2022-11-05T18:59:55.456Z,12.60
2022-11-05T19:02:22.689Z,11.20
2022-11-05T19:05:13.853Z,11.80
2022-11-05T19:07:40.430Z,12.63
2022-11-05T19:10:08.525Z,13.43
2022-11-05T19:12:35.782Z,12.60
2022-11-05T19:15:03.497Z,12.77
2022-11-05T19:17:33.194Z,13.87
2022-11-05T19:20:01.047Z,12.20
2022-11-05T19:22:28.425Z,14.93
2022-11-05T19:24:55.619Z,13.30
2022-11-05T19:27:23.333Z,13.83
2022-11-05T19:29:50.801Z,13.50
2022-11-05T19:32:18.023Z,12.67
2022-11-05T19:34:45.201Z,13.80
2022-11-05T19:37:12.667Z,13.57
2022-11-05T19:39:41.201Z,13.83
2022-11-05T19:42:08.404Z,15.23
2022-11-05T19:44:38.949Z,14.67
2022-11-05T19:47:06.210Z,14.73
2022-11-05T19:49:33.390Z,13.97
2022-11-05T19:52:00.523Z,14.83
2022-11-05T19:54:27.664Z,17.30
2022-11-05T19:56:54.766Z,13.87
2022-11-05T19:59:21.902Z,12.90
2022-11-05T20:01:49.156Z,15.03
2022-11-05T20:04:16.461Z,13.70
2022-11-05T20:06:43.515Z,13.83
2022-11-05T20:09:22.625Z,14.87
2022-11-05T20:11:54.384Z,15.10
2022-11-05T20:14:22.950Z,14.83
2022-11-05T20:16:50.754Z,14.50
2022-11-05T20:19:20.899Z,14.83
2022-11-05T20:21:48.671Z,13.90
2022-11-05T20:24:24.245Z,14.90
2022-11-05T20:26:54.011Z,14.30
2022-11-05T20:29:21.589Z,14.50
2022-11-05T20:31:49.345Z,13.90
2022-11-05T20:34:16.466Z,15.87
2022-11-05T20:36:43.510Z,14.20
2022-11-05T20:39:12.155Z,14.43
2022-11-05T20:41:39.292Z,14.43
2022-11-05T20:44:06.405Z,13.90
2022-11-05T20:46:33.522Z,13.60
2022-11-05T20:49:00.626Z,14.00
2022-11-05T20:51:27.804Z,13.87
2022-11-05T20:53:57.492Z,15.40
2022-11-05T20:56:29.576Z,14.30
2022-11-05T20:58:59.093Z,14.47
2022-11-05T21:01:30.325Z,14.60
2022-11-05T21:03:58.326Z,16.73
2022-11-05T21:06:25.950Z,13.60
2022-11-05T21:08:53.928Z,16.53
2022-11-05T21:11:21.130Z,13.33
2022-11-05T21:13:48.913Z,14.83
2022-11-05T21:16:18.891Z,15.13
2022-11-05T21:18:46.882Z,13.93
2022-11-05T21:21:18.640Z,15.73
2022-11-05T21:23:45.928Z,14.97
2022-11-05T21:26:14.620Z,14.90
2022-11-05T21:28:42.653Z,15.93
2022-11-05T21:31:10.330Z,14.00
2022-11-05T21:33:38.088Z,14.80
2022-11-05T21:36:13.203Z,13.33
2022-11-05T21:38:41.259Z,12.93
2022-11-05T21:41:10.563Z,13.93
2022-11-05T21:43:39.481Z,15.50
2022-11-05T21:46:06.672Z,16.27
2022-11-05T21:48:34.075Z,16.90
2022-11-05T21:51:20.135Z,16.47
2022-11-05T21:54:06.175Z,18.20
2022-11-05T21:56:52.188Z,19.17
2022-11-05T21:59:41.269Z,17.20
2022-11-05T22:02:11.353Z,21.20
2022-11-05T22:04:44.816Z,21.43
2022-11-05T22:07:16.490Z,18.93
2022-11-05T22:09:44.207Z,19.10
2022-11-05T22:12:11.466Z,17.33
2022-11-05T22:14:38.950Z,16.37
2022-11-05T22:17:07.239Z,18.83
2022-11-05T22:19:35.036Z,17.80
2022-11-05T22:22:03.240Z,19.70
2022-11-05T22:24:31.868Z,16.47
2022-11-05T22:27:01.399Z,17.80
2022-11-05T22:29:29.051Z,16.63
2022-11-05T22:31:57.187Z,16.73
2022-11-05T22:34:25.644Z,17.83
2022-11-05T22:36:53.184Z,18.27
2022-11-05T22:39:21.080Z,15.60
2022-11-05T22:41:48.625Z,16.90
2022-11-05T22:44:17.227Z,16.20
2022-11-05T22:46:44.417Z,16.23
2022-11-05T22:49:11.805Z,17.37
2022-11-05T22:51:39.467Z,17.20
2022-11-05T22:54:07.527Z,15.43
2022-11-05T22:56:39.255Z,16.93
2022-11-05T22:59:08.864Z,15.97
2022-11-05T23:01:36.239Z,15.10
2022-11-05T23:04:03.653Z,16.23
2022-11-05T23:06:51.687Z,14.47
2022-11-05T23:09:42.453Z,15.30
2022-11-05T23:12:34.160Z,15.10
2022-11-05T23:15:05.784Z,15.17
2022-11-05T23:17:51.764Z,15.90
2022-11-05T23:20:40.385Z,15.63
2022-11-05T23:23:31.579Z,13.90
2022-11-05T23:26:21.953Z,14.30
2022-11-05T23:28:49.014Z,14.53
2022-11-05T23:31:34.967Z,13.63
2022-11-05T23:34:02.036Z,14.83
2022-11-05T23:36:47.576Z,14.93
2022-11-05T23:39:14.794Z,15.50
2022-11-05T23:42:00.798Z,13.80
2022-11-05T23:44:46.121Z,15.67
2022-11-05T23:47:32.328Z,14.80
2022-11-05T23:49:59.480Z,14.00
2022-11-05T23:52:26.638Z,13.90
2022-11-05T23:54:53.693Z,14.00
2022-11-05T23:57:20.788Z,13.00
2022-11-05T23:59:47.955Z,12.93
